Terminal Aerodrome Forecast
Issued by NWS

Home | Current Version | Previous Version | Text Only | Print | Product List | Glossary On
Versions: 1 2 3 4 5 6 7 8 9 10 11 12 13 14 15
000
FTUS42 KRAH 232336
TAFRWI
TAF
KRWI 232336Z 2400/2424 VRB06G16KT P6SM FEW040
     FM240300 08011KT P6SM OVC060
     FM240700 08014KT 2SM SHRA BR BKN003 OVC007
     FM241300 08014KT 5SM SHRA BR OVC008
     FM241700 09010G20KT P6SM VCSH OVC006=

USA.gov is the U.S. government's official web portal to all federal, state and local government web resources and services.